Time;durP1;ratioP1;P1;durP2;ratioP2;P2;SDS_P1;SDS_P2;PMS_P1;PMS_P2;Temp;Humidity;BMP_temperature;BMP_pressure;BME280_temperature;BME280_humidity;BME280_pressure;Samples;Min_cycle;Max_cycle;Signal;HPM_P1;HPM_P2
2021/06/08 00:00:27;;;;;;;4.18;2.33;;;18.30;66.90;21.00;94207.00;;;;10512373;28;75454;-82
2021/06/08 00:05:27;;;;;;;2.55;1.77;;;18.30;66.60;21.10;94227.00;;;;10513338;28;47189;-82
2021/06/08 00:10:28;;;;;;;11.38;2.40;;;18.40;66.10;20.90;94232.00;;;;10495501;28;75230;-82
2021/06/08 00:15:29;;;;;;;3.85;1.20;;;18.30;66.50;20.80;94242.00;;;;10495853;28;48057;-82
2021/06/08 00:20:30;;;;;;;2.95;1.30;;;18.20;66.90;20.80;94223.00;;;;10493281;28;48638;-82
2021/06/08 00:25:31;;;;;;;2.15;1.13;;;18.20;66.90;20.70;94252.00;;;;10510861;28;47288;-82
2021/06/08 00:30:32;;;;;;;1.38;1.00;;;18.10;67.10;20.60;94245.00;;;;10493517;28;47266;-82
2021/06/08 00:35:33;;;;;;;1.77;0.98;;;18.10;67.30;20.80;94248.00;;;;10492211;28;71007;-82
2021/06/08 00:40:34;;;;;;;1.77;1.20;;;18.20;67.20;20.80;94253.00;;;;10494152;28;46980;-82
2021/06/08 00:45:34;;;;;;;17.45;1.67;;;18.10;67.40;20.60;94243.00;;;;10493190;28;47174;-82
2021/06/08 00:50:35;;;;;;;1.42;0.90;;;18.00;68.00;20.70;94243.00;;;;10493347;28;47489;-82
2021/06/08 00:55:36;;;;;;;5.55;3.03;;;18.10;67.40;20.90;94235.00;;;;10490855;28;75545;-82
2021/06/08 01:00:37;;;;;;;2.60;1.77;;;18.20;67.30;20.80;94214.00;;;;10490452;27;75247;-83
2021/06/08 01:05:38;;;;;;;1.40;1.10;;;18.20;67.30;20.70;94216.00;;;;10510391;28;47180;-82
2021/06/08 01:10:39;;;;;;;1.05;0.75;;;18.20;67.10;20.60;94203.00;;;;10497444;28;47600;-82
2021/06/08 01:15:39;;;;;;;0.45;0.40;;;18.10;66.90;20.50;94210.00;;;;10499113;28;47169;-82
2021/06/08 01:20:41;;;;;;;0.77;0.60;;;17.90;67.20;20.30;94216.00;;;;10497419;28;75457;-82
2021/06/08 01:25:42;;;;;;;0.50;0.50;;;17.70;67.70;20.10;94206.00;;;;10497926;28;47005;-82
2021/06/08 01:30:43;;;;;;;0.88;0.55;;;17.50;68.30;20.10;94196.00;;;;10497961;28;47056;-82
2021/06/08 01:35:46;;;;;;;0.63;0.60;;;17.40;68.40;20.00;94198.00;;;;10495628;28;69010;-82
2021/06/08 01:40:50;;;;;;;1.83;0.90;;;17.40;68.50;19.80;94191.00;;;;10493216;28;51880;-82
2021/06/08 01:45:51;;;;;;;1.02;0.63;;;17.20;69.00;19.70;94193.00;;;;10493646;28;47173;-82
2021/06/08 01:50:52;;;;;;;1.20;0.88;;;17.20;69.90;19.90;94188.00;;;;10509861;28;47292;-82
2021/06/08 01:56:00;;;;;;;1.38;1.10;;;17.20;69.90;19.80;94187.00;;;;10492861;28;48749;-82
2021/06/08 02:01:10;;;;;;;1.17;0.90;;;17.20;70.20;19.80;94190.00;;;;10495789;28;46971;-82
2021/06/08 02:06:52;;;;;;;1.70;1.50;;;17.20;70.20;20.00;94186.00;;;;10497127;28;47166;-83
2021/06/08 02:12:10;;;;;;;1.67;1.23;;;17.20;70.40;20.10;94167.00;;;;10495619;27;47298;-82
2021/06/08 02:17:25;;;;;;;1.50;1.23;;;17.40;69.80;20.20;94181.00;;;;10495866;28;47033;-83
2021/06/08 02:22:27;;;;;;;1.60;1.23;;;17.50;69.50;20.10;94180.00;;;;10544171;22;48133;-86
2021/06/08 02:27:28;;;;;;;1.50;0.93;;;17.50;69.60;20.00;94187.00;;;;10577167;27;56889;-85
2021/06/08 02:32:31;;;;;;;3.83;1.20;;;17.40;69.40;20.10;94199.00;;;;10576684;27;48165;-86
2021/06/08 02:37:33;;;;;;;0.88;0.80;;;17.40;69.50;20.40;94199.00;;;;10577738;27;47250;-87
2021/06/08 02:42:35;;;;;;;1.52;1.08;;;17.60;68.70;20.50;94201.00;;;;10577995;27;46956;-86
2021/06/08 02:47:36;;;;;;;2.30;1.60;;;17.80;68.40;20.60;94207.00;;;;10577375;27;47332;-86
2021/06/08 02:52:38;;;;;;;2.97;1.40;;;17.90;68.00;20.60;94212.00;;;;10594425;27;45611;-86
2021/06/08 02:57:39;;;;;;;1.45;1.10;;;17.90;67.80;20.70;94213.00;;;;10575785;27;70201;-86
2021/06/08 03:02:42;;;;;;;1.23;1.10;;;18.00;67.60;20.70;94221.00;;;;10576594;27;47799;-85
2021/06/08 03:07:46;;;;;;;1.08;0.80;;;18.10;67.10;20.80;94218.00;;;;10576435;27;75046;-86
2021/06/08 03:12:56;;;;;;;1.17;0.90;;;18.10;67.10;20.80;94225.00;;;;10577147;27;47003;-86
2021/06/08 03:17:57;;;;;;;1.08;0.95;;;18.20;66.70;20.80;94224.00;;;;10578289;27;47084;-85
2021/06/08 03:23:02;;;;;;;1.38;0.90;;;18.20;66.50;20.80;94220.00;;;;10575121;27;74546;-86
2021/06/08 03:28:04;;;;;;;2.33;1.10;;;18.20;66.60;20.80;94229.00;;;;10593911;27;45568;-86
2021/06/08 03:33:05;;;;;;;1.13;1.00;;;18.20;66.50;20.80;94220.00;;;;10576092;27;48272;-85
2021/06/08 03:38:07;;;;;;;1.48;1.00;;;18.10;66.20;20.80;94236.00;;;;10573637;27;46919;-85
2021/06/08 03:43:09;;;;;;;1.20;1.00;;;18.20;66.70;20.80;94225.00;;;;10571670;27;77198;-85
2021/06/08 03:48:09;;;;;;;1.60;1.10;;;18.10;66.30;20.90;94227.00;;;;10573066;27;47228;-85
2021/06/08 03:53:10;;;;;;;1.90;1.20;;;18.20;66.30;20.90;94224.00;;;;10572134;27;50413;-85
2021/06/08 03:58:14;;;;;;;2.67;1.20;;;18.20;66.10;20.90;94232.00;;;;10572874;27;48334;-85
2021/06/08 04:03:18;;;;;;;1.20;1.00;;;18.20;66.00;20.90;94245.00;;;;10572512;27;47435;-85
2021/06/08 04:08:19;;;;;;;1.98;1.20;;;18.20;66.10;20.90;94243.00;;;;10572541;27;47528;-85
2021/06/08 04:13:19;;;;;;;1.38;1.10;;;18.20;66.00;20.90;94241.00;;;;10571537;27;69627;-85
2021/06/08 04:18:22;;;;;;;1.67;1.30;;;18.20;66.10;21.00;94257.00;;;;10572564;27;47228;-85
2021/06/08 04:23:27;;;;;;;1.45;1.25;;;18.30;66.30;21.00;94246.00;;;;10572364;27;47269;-85
2021/06/08 04:28:28;;;;;;;1.50;1.20;;;18.20;66.10;21.10;94248.00;;;;10588943;27;48507;-85
2021/06/08 04:33:30;;;;;;;2.05;1.60;;;18.30;66.10;21.10;94255.00;;;;10570594;27;47283;-85
2021/06/08 04:38:30;;;;;;;2.63;1.88;;;18.40;66.00;21.20;94258.00;;;;10571472;27;46971;-85
2021/06/08 04:43:31;;;;;;;1.70;1.48;;;18.40;65.70;21.30;94262.00;;;;10571668;27;75162;-85
2021/06/08 04:48:33;;;;;;;1.90;1.60;;;18.40;66.70;21.50;94245.00;;;;10573679;27;49993;-85
2021/06/08 04:53:35;;;;;;;2.00;1.27;;;18.60;65.30;21.70;94243.00;;;;10573950;27;47221;-87
2021/06/08 04:58:36;;;;;;;1.80;1.20;;;18.80;64.80;21.90;94254.00;;;;10588261;27;47047;-85
2021/06/08 05:03:41;;;;;;;1.10;1.00;;;19.00;63.50;22.00;94250.00;;;;10570123;27;63256;-84
2021/06/08 05:08:54;;;;;;;1.08;0.98;;;19.00;62.40;22.20;94252.00;;;;10570882;27;48154;-86
2021/06/08 05:13:55;;;;;;;1.42;0.90;;;19.20;62.00;22.40;94262.00;;;;10570496;27;51928;-87
2021/06/08 05:18:58;;;;;;;1.67;0.93;;;19.40;60.90;22.60;94269.00;;;;10544438;27;74109;-87
2021/06/08 05:23:59;;;;;;;1.35;0.90;;;19.60;60.00;22.90;94272.00;;;;10544655;27;47138;-86
2021/06/08 05:29:00;;;;;;;1.17;0.80;;;19.80;59.30;23.20;94259.00;;;;10519394;27;48049;-86
2021/06/08 05:34:01;;;;;;;1.05;0.90;;;20.10;59.80;23.50;94271.00;;;;10585405;27;75670;-87
2021/06/08 05:39:05;;;;;;;1.08;0.80;;;20.30;58.80;23.70;94276.00;;;;10587406;27;48331;-85
2021/06/08 05:44:09;;;;;;;2.25;1.20;;;20.50;59.00;23.80;94282.00;;;;10569267;27;47111;-85
2021/06/08 05:49:10;;;;;;;3.08;1.25;;;20.60;59.00;24.00;94273.00;;;;10592747;27;47335;-85
2021/06/08 05:54:11;;;;;;;0.80;0.80;;;20.80;59.40;24.20;94291.00;;;;10593787;27;47085;-87
2021/06/08 05:59:15;;;;;;;1.75;0.82;;;20.90;58.90;24.60;94285.00;;;;10593170;27;74562;-85
2021/06/08 06:04:17;;;;;;;1.05;0.63;;;21.20;57.80;25.10;94287.00;;;;10593100;27;48177;-85
2021/06/08 06:09:23;;;;;;;0.70;0.70;;;21.70;57.40;25.50;94277.00;;;;10593749;27;48141;-87
2021/06/08 06:14:25;;;;;;;1.98;1.20;;;22.00;56.30;25.90;94291.00;;;;10576279;27;48072;-86
2021/06/08 06:20:15;;;;;;;1.60;0.70;;;22.40;56.20;26.40;94279.00;;;;10580881;27;50887;-87
2021/06/08 06:25:18;;;;;;;4.63;1.40;;;22.70;53.90;25.70;94298.00;;;;10548100;27;46638;-87
2021/06/08 06:30:29;;;;;;;1.40;1.20;;;22.40;56.10;25.10;94307.00;;;;10532502;27;47201;-87
2021/06/08 06:35:30;;;;;;;2.50;1.58;;;22.20;55.90;24.70;94284.00;;;;10549480;27;60047;-90
2021/06/08 06:40:33;;;;;;;1.58;1.10;;;21.60;58.70;25.70;94286.00;;;;10532681;27;46937;-87
2021/06/08 06:45:36;;;;;;;1.45;1.10;;;22.10;56.80;26.40;94289.00;;;;10549958;27;47046;-87
2021/06/08 06:50:39;;;;;;;1.10;0.75;;;22.70;54.50;26.90;94296.00;;;;10549505;27;45439;-87
2021/06/08 06:55:40;;;;;;;1.00;0.90;;;23.20;52.40;27.20;94308.00;;;;10532611;27;47483;-85
2021/06/08 07:00:41;;;;;;;1.50;1.02;;;23.60;50.60;27.50;94300.00;;;;10531422;27;51967;-87
2021/06/08 07:05:48;;;;;;;1.20;1.10;;;23.80;50.70;27.50;94314.00;;;;10532173;27;46990;-85
2021/06/08 07:10:53;;;;;;;1.35;1.00;;;24.00;48.70;26.40;94320.00;;;;10531476;27;47298;-86
2021/06/08 07:15:54;;;;;;;1.42;0.85;;;23.10;51.50;26.00;94326.00;;;;10547646;27;47107;-85
2021/06/08 07:20:55;;;;;;;2.33;1.00;;;22.90;52.10;25.70;94315.00;;;;10547714;27;45385;-85
2021/06/08 07:25:56;;;;;;;0.98;0.88;;;22.70;52.60;25.60;94324.00;;;;10530715;27;47132;-87
2021/06/08 07:30:59;;;;;;;0.95;0.80;;;22.60;52.70;25.80;94320.00;;;;10529033;27;75413;-87
2021/06/08 07:36:22;;;;;;;1.00;0.90;;;22.70;52.40;26.30;94318.00;;;;10529905;27;47060;-86
2021/06/08 07:42:03;;;;;;;1.10;1.00;;;23.00;52.50;26.40;94319.00;;;;10546917;27;47251;-87
2021/06/08 07:47:07;;;;;;;0.80;0.80;;;23.10;52.40;26.90;94306.00;;;;10519491;27;47219;-87
2021/06/08 07:52:08;;;;;;;1.65;1.00;;;23.40;50.40;27.10;94317.00;;;;10547482;27;45287;-87
2021/06/08 07:57:11;;;;;;;1.65;1.08;;;23.70;50.10;26.90;94322.00;;;;10548655;27;47357;-86
2021/06/08 08:02:17;;;;;;;1.35;1.08;;;23.70;49.50;26.50;94321.00;;;;10546721;27;46965;-87
2021/06/08 08:07:23;;;;;;;1.30;1.20;;;23.30;50.30;26.10;94310.00;;;;10547312;27;48097;-87
2021/06/08 08:12:24;;;;;;;1.27;1.05;;;22.90;50.60;26.10;94313.00;;;;10546367;27;46964;-87
2021/06/08 08:17:26;;;;;;;1.52;1.20;;;23.00;50.20;26.10;94322.00;;;;10546958;27;47050;-87
2021/06/08 08:36:23;;;;;;;2.30;1.98;;;22.40;54.30;24.70;94324.00;;;;10433528;28;45945;-87
2021/06/08 08:42:46;;;;;;;3.40;2.40;;;21.90;56.30;24.60;94334.00;;;;10391220;28;45448;-87
2021/06/08 08:55:20;;;;;;;4.47;2.63;;;21.70;57.00;25.10;94329.00;;;;10268837;28;45446;-86
2021/06/08 09:08:16;;;;;;;5.05;3.35;;;23.00;54.50;30.50;94313.00;;;;10389528;28;45457;-87
2021/06/08 09:27:14;;;;;;;4.85;3.10;;;24.80;49.80;27.40;94326.00;;;;10435411;28;46176;-87
2021/06/08 09:52:31;;;;;;;5.28;3.35;;;24.40;50.40;26.70;94326.00;;;;10399469;28;45258;-86
2021/06/08 09:59:02;;;;;;;4.95;3.05;;;23.80;51.20;26.30;94330.00;;;;10316747;28;45437;-87
2021/06/08 10:31:06;;;;;;;4.03;2.50;;;23.20;52.00;26.20;94333.00;;;;10115959;29;45700;-87
2021/06/08 10:37:31;;;;;;;5.03;2.97;;;23.20;52.40;26.10;94342.00;;;;10081254;29;45616;-85
2021/06/08 11:15:29;;;;;;;3.47;2.90;;;23.20;53.70;26.50;94316.00;;;;10480069;28;45302;-86
2021/06/08 11:34:18;;;;;;;18.60;4.00;;;24.40;50.90;28.40;94320.00;;;;10342205;28;45595;-87
2021/06/08 14:22:35;;;;;;;4.20;3.80;;;25.20;49.60;27.70;94247.00;;;;10115249;22;48344;-86
2021/06/08 14:27:36;;;;;;;6.03;5.05;;;24.80;50.50;27.80;94223.00;;;;10353832;28;48340;-84
2021/06/08 14:32:37;;;;;;;5.07;4.20;;;25.00;48.60;27.40;94224.00;;;;10323767;28;47229;-84
2021/06/08 14:37:40;;;;;;;4.38;3.97;;;24.90;49.50;27.10;94233.00;;;;10328137;28;46965;-83
2021/06/08 14:42:40;;;;;;;4.82;3.70;;;24.40;52.20;27.20;94226.00;;;;10325327;28;47931;-83
2021/06/08 14:47:41;;;;;;;3.85;3.50;;;24.30;53.40;27.20;94213.00;;;;10325985;28;47216;-83
2021/06/08 14:52:42;;;;;;;3.85;3.40;;;24.30;52.80;27.30;94215.00;;;;10325522;28;47517;-83
2021/06/08 14:57:43;;;;;;;5.15;4.40;;;24.30;53.20;27.40;94208.00;;;;10325324;28;47120;-83
2021/06/08 15:02:43;;;;;;;6.18;4.63;;;24.50;51.70;27.50;94217.00;;;;10325270;28;47390;-84
2021/06/08 15:07:44;;;;;;;7.57;5.70;;;24.70;50.90;27.20;94211.00;;;;10324952;28;75368;-83
2021/06/08 15:12:45;;;;;;;5.72;4.65;;;24.60;50.80;27.40;94214.00;;;;10324236;28;49176;-84
2021/06/08 15:17:46;;;;;;;6.00;5.30;;;24.70;50.90;27.60;94212.00;;;;10345952;28;46088;-83
2021/06/08 15:22:47;;;;;;;7.45;6.13;;;24.80;50.00;27.70;94207.00;;;;10357869;28;47013;-87
2021/06/08 15:27:48;;;;;;;7.63;6.43;;;24.70;50.50;27.60;94206.00;;;;10361979;28;59893;-85
2021/06/08 15:32:49;;;;;;;5.55;4.57;;;24.80;49.30;27.30;94205.00;;;;10386293;28;45473;-84
2021/06/08 15:38:01;;;;;;;8.43;5.45;;;24.60;50.30;27.40;94184.00;;;;10365043;28;47091;-83
2021/06/08 15:43:02;;;;;;;7.88;6.80;;;24.60;52.00;27.50;94190.00;;;;10327464;28;45555;-84
2021/06/08 15:48:04;;;;;;;7.68;5.72;;;24.50;51.00;27.30;94186.00;;;;10334519;28;47470;-86
2021/06/08 15:53:04;;;;;;;7.85;5.78;;;24.40;53.30;27.10;94193.00;;;;10334693;28;47455;-82
2021/06/08 15:58:05;;;;;;;7.18;5.47;;;24.20;55.40;26.90;94201.00;;;;10328035;28;73675;-84
